Time;durP1;ratioP1;P1;durP2;ratioP2;P2;SDS_P1;SDS_P2;PMS_P1;PMS_P2;Temp;Humidity;BMP_temperature;BMP_pressure;BME280_temperature;BME280_humidity;BME280_pressure;Samples;Min_cycle;Max_cycle;Signal;HPM_P1;HPM_P2
2022/08/25 00:00:16;;;;;;;2.77;2.60;;;28.00;60.10;;;;;;5061919;28;20585;-69
2022/08/25 00:02:44;;;;;;;2.90;2.70;;;28.00;60.00;;;;;;5065273;28;20494;-68
2022/08/25 00:05:26;;;;;;;2.10;2.00;;;28.00;60.10;;;;;;5069606;28;20498;-69
2022/08/25 00:08:00;;;;;;;2.47;2.27;;;27.90;60.10;;;;;;5034844;28;20485;-69
2022/08/25 00:10:30;;;;;;;2.33;2.17;;;27.90;60.10;;;;;;5051532;28;20532;-69
2022/08/25 00:12:58;;;;;;;2.50;2.40;;;27.90;60.10;;;;;;5048250;28;20967;-70
2022/08/25 00:15:27;;;;;;;2.70;2.50;;;27.90;60.10;;;;;;5035187;28;20486;-69
2022/08/25 00:17:56;;;;;;;2.60;2.40;;;27.90;60.10;;;;;;5042283;28;20527;-68
2022/08/25 00:20:24;;;;;;;2.20;2.10;;;27.90;60.10;;;;;;5054507;28;20536;-69
2022/08/25 00:22:54;;;;;;;2.50;2.30;;;27.90;60.20;;;;;;5074087;28;20472;-68
2022/08/25 00:25:23;;;;;;;2.50;2.40;;;27.90;60.20;;;;;;5074196;28;20758;-69
2022/08/25 00:27:52;;;;;;;2.63;2.43;;;27.90;60.20;;;;;;5063912;28;20437;-68
2022/08/25 00:30:20;;;;;;;2.57;2.47;;;27.90;60.20;;;;;;5045928;28;20457;-70
2022/08/25 00:32:49;;;;;;;2.70;2.60;;;27.90;60.20;;;;;;5053633;28;20516;-72
2022/08/25 00:35:25;;;;;;;2.33;2.23;;;27.90;60.20;;;;;;5052008;28;20577;-72
2022/08/25 00:37:54;;;;;;;2.23;2.13;;;27.90;60.20;;;;;;5037072;28;20547;-69
2022/08/25 00:40:25;;;;;;;2.60;2.50;;;27.90;60.20;;;;;;5047177;28;20548;-68
2022/08/25 00:42:54;;;;;;;2.83;2.63;;;27.90;60.20;;;;;;5043764;28;20542;-68
2022/08/25 00:45:23;;;;;;;3.10;2.90;;;27.90;60.20;;;;;;5044411;28;20456;-70
2022/08/25 00:47:52;;;;;;;2.30;2.20;;;27.90;60.20;;;;;;5052652;28;20456;-70
2022/08/25 00:50:24;;;;;;;2.97;2.80;;;27.90;60.20;;;;;;5052314;28;20939;-69
2022/08/25 00:52:56;;;;;;;2.80;2.60;;;27.90;60.30;;;;;;5043049;28;20499;-68
2022/08/25 00:55:29;;;;;;;2.13;2.03;;;27.90;60.30;;;;;;5051263;28;20975;-69
2022/08/25 00:58:05;;;;;;;3.07;2.87;;;27.90;60.30;;;;;;5037175;28;20512;-68
2022/08/25 01:00:36;;;;;;;2.30;2.20;;;27.90;60.30;;;;;;5048387;28;20454;-68
2022/08/25 01:03:05;;;;;;;2.47;2.37;;;27.80;60.30;;;;;;5040899;28;21036;-69
2022/08/25 01:05:34;;;;;;;3.07;2.87;;;27.80;60.30;;;;;;5052658;28;20497;-68
2022/08/25 01:08:05;;;;;;;2.90;2.70;;;27.80;60.30;;;;;;5037533;28;20453;-68
2022/08/25 01:10:37;;;;;;;2.47;2.37;;;27.80;60.40;;;;;;5046465;28;20460;-69
2022/08/25 01:13:10;;;;;;;3.03;2.40;;;27.80;60.40;;;;;;5033748;28;20551;-69
2022/08/25 01:15:44;;;;;;;2.33;2.23;;;27.80;60.40;;;;;;5033447;28;20444;-72
2022/08/25 01:18:12;;;;;;;3.13;2.93;;;27.80;60.40;;;;;;5032465;28;20460;-69
2022/08/25 01:20:41;;;;;;;2.70;2.60;;;27.80;60.40;;;;;;5033855;28;20434;-68
2022/08/25 01:23:11;;;;;;;3.20;3.00;;;27.80;60.40;;;;;;5039482;28;20454;-69
2022/08/25 01:25:47;;;;;;;3.03;2.83;;;27.80;60.40;;;;;;5073326;28;20783;-69
2022/08/25 01:28:16;;;;;;;2.50;2.40;;;27.80;60.40;;;;;;5073499;28;20755;-71
2022/08/25 01:30:44;;;;;;;2.80;2.70;;;27.80;60.40;;;;;;5041657;28;20627;-69
2022/08/25 01:33:16;;;;;;;2.93;2.73;;;27.80;60.40;;;;;;5052070;28;21022;-69
2022/08/25 01:35:44;;;;;;;2.87;2.67;;;27.80;60.40;;;;;;5052878;28;20482;-70
2022/08/25 01:38:14;;;;;;;2.70;2.60;;;27.80;60.50;;;;;;5051493;28;20450;-69
2022/08/25 01:40:43;;;;;;;2.60;2.50;;;27.80;60.50;;;;;;5039517;28;20454;-69
2022/08/25 01:43:21;;;;;;;3.10;2.90;;;27.80;60.50;;;;;;5054177;28;20451;-70
2022/08/25 01:45:49;;;;;;;3.10;2.90;;;27.80;60.50;;;;;;5052880;28;20513;-69
2022/08/25 01:48:18;;;;;;;3.10;2.90;;;27.80;60.50;;;;;;5052514;28;20809;-69
2022/08/25 01:50:46;;;;;;;3.20;3.00;;;27.80;60.50;;;;;;5052692;28;20601;-68
2022/08/25 01:53:23;;;;;;;3.00;2.80;;;27.70;60.50;;;;;;5034822;28;20475;-69
2022/08/25 01:55:51;;;;;;;3.40;3.20;;;27.70;60.50;;;;;;5033109;28;20761;-70
2022/08/25 01:58:22;;;;;;;3.20;3.00;;;27.70;60.50;;;;;;5032660;28;20512;-72
2022/08/25 02:00:55;;;;;;;3.17;2.97;;;27.70;60.50;;;;;;5059119;28;20554;-68
2022/08/25 02:03:24;;;;;;;2.70;2.60;;;27.70;60.60;;;;;;5060380;28;20491;-68
2022/08/25 02:05:53;;;;;;;2.70;2.50;;;27.70;60.60;;;;;;5057559;28;20493;-69
2022/08/25 02:08:23;;;;;;;3.70;3.50;;;27.70;60.60;;;;;;5052553;28;20517;-69
2022/08/25 02:10:54;;;;;;;3.17;2.97;;;27.70;60.60;;;;;;5052850;28;20477;-69
2022/08/25 02:13:23;;;;;;;3.77;3.57;;;27.70;60.60;;;;;;5057605;28;20466;-69
2022/08/25 02:16:00;;;;;;;2.87;2.67;;;27.70;60.60;;;;;;5071882;28;20450;-69
2022/08/25 02:18:29;;;;;;;3.60;3.30;;;27.70;60.60;;;;;;5071821;28;20466;-69
2022/08/25 02:20:57;;;;;;;3.30;3.10;;;27.70;60.60;;;;;;5045180;28;20537;-69
2022/08/25 02:24:21;;;;;;;3.60;3.30;;;27.70;60.60;;;;;;5032437;28;20460;-69
2022/08/25 02:26:50;;;;;;;3.23;3.03;;;27.70;60.70;;;;;;5032389;28;20456;-69
2022/08/25 02:29:18;;;;;;;3.27;3.07;;;27.70;60.70;;;;;;5032822;28;20493;-70
2022/08/25 02:31:47;;;;;;;3.70;3.40;;;27.70;60.70;;;;;;5041328;28;20506;-68
2022/08/25 02:34:16;;;;;;;3.30;3.10;;;27.70;60.70;;;;;;5052145;28;20490;-69
2022/08/25 02:36:44;;;;;;;3.63;3.43;;;27.70;60.70;;;;;;5051649;28;20466;-69
2022/08/25 02:39:13;;;;;;;3.37;3.17;;;27.70;60.70;;;;;;5063883;28;20470;-69
2022/08/25 02:41:41;;;;;;;3.47;3.27;;;27.60;60.70;;;;;;5071899;28;20456;-68
2022/08/25 02:44:10;;;;;;;3.70;3.40;;;27.60;60.80;;;;;;5071919;28;20487;-69
2022/08/25 02:46:38;;;;;;;3.20;3.00;;;27.60;60.80;;;;;;5066397;28;20421;-68
2022/08/25 02:49:09;;;;;;;3.17;2.97;;;27.60;60.80;;;;;;5031106;28;20894;-69
2022/08/25 02:51:38;;;;;;;3.57;3.37;;;27.60;60.80;;;;;;5031813;28;20491;-70
2022/08/25 02:54:06;;;;;;;3.23;3.03;;;27.60;60.80;;;;;;5032066;28;20443;-69
2022/08/25 02:56:35;;;;;;;3.80;3.50;;;27.60;60.80;;;;;;5054531;28;20503;-68
2022/08/25 02:59:04;;;;;;;3.10;2.90;;;27.60;60.80;;;;;;5072088;28;20461;-69
2022/08/25 03:01:34;;;;;;;3.90;3.60;;;27.60;60.80;;;;;;5047791;28;20514;-69
2022/08/25 03:04:02;;;;;;;3.97;3.67;;;27.60;60.80;;;;;;5051132;28;20491;-72
2022/08/25 03:06:31;;;;;;;4.00;3.73;;;27.60;60.80;;;;;;5058213;28;20443;-69
2022/08/25 03:09:00;;;;;;;3.30;3.10;;;27.60;60.80;;;;;;5063124;28;20458;-69
2022/08/25 03:11:28;;;;;;;4.80;4.50;;;27.60;60.80;;;;;;5070209;28;20491;-69
2022/08/25 03:13:57;;;;;;;3.53;3.33;;;27.60;60.90;;;;;;5031462;28;20474;-68
2022/08/25 03:16:26;;;;;;;4.30;3.90;;;27.60;60.90;;;;;;5031324;28;20901;-72
2022/08/25 03:18:58;;;;;;;3.53;3.33;;;27.50;60.90;;;;;;5051009;28;20930;-69
2022/08/25 03:21:28;;;;;;;4.20;3.90;;;27.60;60.90;;;;;;5054194;28;20913;-69
2022/08/25 03:23:59;;;;;;;4.00;3.70;;;27.50;60.90;;;;;;5032332;28;20762;-70
2022/08/25 03:29:14;;;;;;;4.27;3.97;;;27.50;60.90;;;;;;5035021;28;20447;-72
2022/08/25 03:31:43;;;;;;;4.50;4.10;;;27.50;60.90;;;;;;5051193;28;20455;-69
2022/08/25 03:34:15;;;;;;;3.70;3.50;;;27.50;61.00;;;;;;5050650;28;20570;-69
2022/08/25 03:36:44;;;;;;;4.10;3.70;;;27.50;61.00;;;;;;5040601;28;20502;-73
2022/08/25 03:39:12;;;;;;;4.17;3.80;;;27.50;61.00;;;;;;5072037;28;20461;-69
2022/08/25 03:41:41;;;;;;;4.53;4.23;;;27.50;61.00;;;;;;5071454;28;20517;-68
2022/08/25 03:44:09;;;;;;;4.27;3.97;;;27.50;61.00;;;;;;5071443;28;20435;-68
2022/08/25 03:46:39;;;;;;;3.90;3.60;;;27.50;61.00;;;;;;5070784;28;20974;-70
2022/08/25 03:49:10;;;;;;;4.17;3.87;;;27.50;61.00;;;;;;5071046;28;20896;-69
2022/08/25 03:51:42;;;;;;;4.30;4.00;;;27.50;61.00;;;;;;5071543;28;20427;-70
2022/08/25 03:54:10;;;;;;;4.33;4.03;;;27.50;61.10;;;;;;5055728;28;20506;-69
2022/08/25 03:56:39;;;;;;;4.40;4.10;;;27.50;61.00;;;;;;5067525;28;20472;-69
2022/08/25 03:59:08;;;;;;;4.00;3.70;;;27.50;61.10;;;;;;5063772;28;20567;-71
2022/08/25 04:01:38;;;;;;;4.90;4.50;;;27.50;61.10;;;;;;5044817;28;20645;-69
2022/08/25 04:04:07;;;;;;;4.43;4.13;;;27.50;61.10;;;;;;5038749;28;20993;-68
2022/08/25 04:06:36;;;;;;;4.83;4.43;;;27.50;61.10;;;;;;5053876;28;20459;-69
2022/08/25 04:09:05;;;;;;;4.33;4.03;;;27.40;61.10;;;;;;5073310;28;20451;-69
2022/08/25 04:11:34;;;;;;;4.77;4.40;;;27.50;61.10;;;;;;5074620;28;20478;-69
2022/08/25 04:14:03;;;;;;;4.47;4.17;;;27.40;61.10;;;;;;5074668;28;20870;-71
2022/08/25 04:16:34;;;;;;;4.27;3.97;;;27.50;61.10;;;;;;5074414;28;20494;-69
2022/08/25 04:19:06;;;;;;;4.37;4.00;;;27.40;61.10;;;;;;5074201;28;20460;-70
2022/08/25 04:21:35;;;;;;;4.30;3.90;;;27.40;61.10;;;;;;5074401;28;20429;-68
2022/08/25 04:24:06;;;;;;;5.10;4.70;;;27.40;61.10;;;;;;5074710;28;20491;-69
2022/08/25 04:26:36;;;;;;;4.07;3.77;;;27.40;61.10;;;;;;5074465;28;20488;-69
2022/08/25 04:29:08;;;;;;;4.57;4.27;;;27.40;61.10;;;;;;5067796;28;20446;-68
2022/08/25 04:31:39;;;;;;;4.50;4.20;;;27.40;61.10;;;;;;5044028;28;20821;-69
2022/08/25 04:34:08;;;;;;;4.93;4.63;;;27.40;61.10;;;;;;5060712;28;20509;-70
2022/08/25 04:36:57;;;;;;;5.37;4.97;;;27.40;61.10;;;;;;5034871;28;20445;-68
2022/08/25 04:39:27;;;;;;;5.63;5.17;;;27.40;61.20;;;;;;5071337;28;20493;-69
2022/08/25 04:41:55;;;;;;;4.77;4.47;;;27.40;61.10;;;;;;5053983;28;20478;-69
2022/08/25 04:44:24;;;;;;;4.67;4.27;;;27.40;61.10;;;;;;5053753;28;20458;-69
2022/08/25 04:46:52;;;;;;;4.70;4.33;;;27.40;61.20;;;;;;5052695;28;20532;-68
2022/08/25 04:49:20;;;;;;;4.27;3.97;;;27.40;61.20;;;;;;5053585;28;20446;-68
2022/08/25 04:51:48;;;;;;;5.20;4.80;;;27.40;61.20;;;;;;5037812;28;20467;-69
2022/08/25 04:54:20;;;;;;;4.40;4.10;;;27.40;61.20;;;;;;5036692;28;20475;-69
2022/08/25 04:56:51;;;;;;;5.30;4.90;;;27.40;61.20;;;;;;5039195;28;20461;-69
2022/08/25 04:59:21;;;;;;;5.10;4.80;;;27.40;61.20;;;;;;5070906;28;20975;-69
2022/08/25 05:01:49;;;;;;;4.90;4.60;;;27.40;61.20;;;;;;5061572;28;20513;-69
2022/08/25 05:04:23;;;;;;;5.07;4.67;;;27.40;61.20;;;;;;5046989;28;20512;-71
2022/08/25 05:06:56;;;;;;;5.07;4.77;;;27.40;61.20;;;;;;5051181;28;20444;-69
2022/08/25 05:09:25;;;;;;;4.90;4.60;;;27.40;61.20;;;;;;5053227;28;20459;-69
2022/08/25 05:11:55;;;;;;;4.67;4.37;;;27.40;61.20;;;;;;5052457;28;20454;-68
2022/08/25 05:14:23;;;;;;;5.20;4.80;;;27.40;61.20;;;;;;5053955;28;20470;-69
2022/08/25 05:16:54;;;;;;;4.77;4.47;;;27.40;61.20;;;;;;5053022;28;20478;-69
2022/08/25 05:19:23;;;;;;;5.00;4.70;;;27.40;61.10;;;;;;5046276;28;20498;-68
2022/08/25 05:21:52;;;;;;;5.27;4.90;;;27.40;61.20;;;;;;5033767;28;20484;-69
2022/08/25 05:24:21;;;;;;;5.43;5.03;;;27.40;61.20;;;;;;5048411;28;20441;-68
2022/08/25 05:26:50;;;;;;;5.83;5.43;;;27.40;61.20;;;;;;5065677;28;21020;-69
2022/08/25 05:29:19;;;;;;;4.93;4.53;;;27.40;61.20;;;;;;5036646;28;20494;-69
2022/08/25 05:31:48;;;;;;;5.10;4.70;;;27.40;61.20;;;;;;5051176;28;20488;-69
2022/08/25 05:34:19;;;;;;;5.27;4.93;;;27.40;61.10;;;;;;5052198;28;20474;-69
2022/08/25 05:36:47;;;;;;;4.87;4.43;;;27.40;61.20;;;;;;5058092;28;20430;-71
2022/08/25 05:39:16;;;;;;;4.80;4.50;;;27.40;61.10;;;;;;5072887;28;20473;-68
2022/08/25 05:41:44;;;;;;;5.30;4.80;;;27.40;61.10;;;;;;5072955;28;20495;-69
2022/08/25 05:44:12;;;;;;;4.90;4.60;;;27.40;61.10;;;;;;5073288;28;20955;-69
2022/08/25 05:46:50;;;;;;;6.57;6.07;;;27.40;61.10;;;;;;5062007;28;20452;-69
2022/08/25 05:49:18;;;;;;;5.23;4.83;;;27.40;61.10;;;;;;5070802;28;20534;-69
2022/08/25 05:51:46;;;;;;;5.07;4.77;;;27.40;61.10;;;;;;5067814;28;20446;-69
2022/08/25 05:54:15;;;;;;;5.40;5.00;;;27.40;61.10;;;;;;5052602;28;20502;-69
2022/08/25 05:56:44;;;;;;;5.60;5.20;;;27.40;61.10;;;;;;5051090;28;20528;-72
2022/08/25 05:59:12;;;;;;;5.40;5.00;;;27.40;61.10;;;;;;5061881;28;20444;-69
2022/08/25 06:04:27;;;;;;;6.00;5.60;;;27.40;61.10;;;;;;5046221;28;20525;-72
2022/08/25 06:06:56;;;;;;;5.63;5.23;;;27.40;61.10;;;;;;5050852;28;20923;-69
2022/08/25 06:09:25;;;;;;;5.63;5.23;;;27.50;61.10;;;;;;5032405;28;20460;-69
2022/08/25 06:11:53;;;;;;;5.10;4.70;;;27.50;61.10;;;;;;5032742;28;20501;-71
2022/08/25 06:14:23;;;;;;;5.47;5.07;;;27.50;61.10;;;;;;5032569;28;20463;-69
2022/08/25 06:16:51;;;;;;;6.30;5.80;;;27.50;61.10;;;;;;5031506;28;20516;-69
2022/08/25 06:19:21;;;;;;;5.27;4.87;;;27.50;61.00;;;;;;5049511;28;20499;-69
2022/08/25 06:21:53;;;;;;;5.60;5.20;;;27.50;61.00;;;;;;5032808;28;20466;-69
2022/08/25 06:24:22;;;;;;;5.63;5.23;;;27.50;61.00;;;;;;5051747;28;20430;-69
2022/08/25 06:26:50;;;;;;;5.13;4.83;;;27.50;61.00;;;;;;5051974;28;20465;-70
2022/08/25 06:29:19;;;;;;;6.03;5.53;;;27.50;61.00;;;;;;5061133;28;20524;-68
2022/08/25 06:31:48;;;;;;;5.70;5.30;;;27.50;61.00;;;;;;5071381;28;21025;-68
2022/08/25 06:34:18;;;;;;;5.20;4.90;;;27.60;60.90;;;;;;5061006;28;20473;-68
2022/08/25 06:36:52;;;;;;;6.37;5.87;;;27.60;60.90;;;;;;5055293;28;20453;-69
2022/08/25 06:39:21;;;;;;;5.53;5.13;;;27.60;60.90;;;;;;5031671;28;20853;-69
2022/08/25 06:41:52;;;;;;;6.60;6.10;;;27.60;60.90;;;;;;5032499;28;20471;-69
2022/08/25 06:44:21;;;;;;;5.57;5.20;;;27.60;60.90;;;;;;5041512;28;20454;-69
2022/08/25 06:46:49;;;;;;;6.07;5.67;;;27.60;60.90;;;;;;5046688;28;20520;-69
2022/08/25 06:49:18;;;;;;;4.57;4.27;;;27.60;60.90;;;;;;5032041;28;20485;-70
2022/08/25 06:51:46;;;;;;;5.13;4.83;;;27.60;60.80;;;;;;5047450;28;20474;-69
2022/08/25 06:54:16;;;;;;;6.40;5.97;;;27.60;60.80;;;;;;5066745;28;20505;-69
2022/08/25 06:56:44;;;;;;;5.33;4.93;;;27.60;60.80;;;;;;5061464;28;20453;-70
2022/08/25 06:59:12;;;;;;;5.97;5.47;;;27.60;60.80;;;;;;5061142;28;20450;-68
2022/08/25 07:01:41;;;;;;;5.40;5.00;;;27.60;60.80;;;;;;5061427;28;20511;-69
2022/08/25 07:04:10;;;;;;;5.23;4.90;;;27.60;60.80;;;;;;5039856;28;20522;-70
2022/08/25 07:06:40;;;;;;;5.77;5.37;;;27.60;60.80;;;;;;5060294;28;20444;-68
2022/08/25 07:09:10;;;;;;;5.80;5.30;;;27.60;60.80;;;;;;5070121;28;20534;-69
2022/08/25 07:11:40;;;;;;;6.00;5.50;;;27.60;60.80;;;;;;5071866;28;20455;-72
2022/08/25 07:14:11;;;;;;;5.70;5.33;;;27.70;60.80;;;;;;5071594;28;20495;-68
2022/08/25 07:16:40;;;;;;;6.20;5.70;;;27.70;60.70;;;;;;5061759;28;20482;-69
2022/08/25 07:19:19;;;;;;;5.40;4.90;;;27.70;60.80;;;;;;5038550;28;20449;-69
2022/08/25 07:21:50;;;;;;;5.50;5.10;;;27.70;60.80;;;;;;5031422;28;20438;-74
2022/08/25 07:24:19;;;;;;;5.70;5.30;;;27.60;60.80;;;;;;5041277;28;20486;-69
2022/08/25 07:26:49;;;;;;;6.37;5.87;;;27.60;60.80;;;;;;5052374;28;20490;-69
2022/08/25 07:29:20;;;;;;;6.27;5.77;;;27.60;60.80;;;;;;5031635;28;20533;-70
2022/08/25 07:32:00;;;;;;;5.63;5.23;;;27.70;60.80;;;;;;5038642;28;20518;-69
2022/08/25 07:37:20;;;;;;;5.97;5.57;;;27.70;60.70;;;;;;5053886;28;20453;-69
2022/08/25 07:40:10;;;;;;;5.97;5.57;;;27.70;60.80;;;;;;5054832;28;20536;-70
2022/08/25 07:42:40;;;;;;;6.30;5.80;;;27.70;60.70;;;;;;5055231;28;20445;-73
2022/08/25 07:45:10;;;;;;;6.30;5.80;;;27.70;60.70;;;;;;5059900;28;20843;-69
2022/08/25 07:47:39;;;;;;;6.73;6.23;;;27.70;60.70;;;;;;5054867;28;20491;-69
2022/08/25 07:50:11;;;;;;;5.57;5.17;;;27.70;60.70;;;;;;5052250;28;20436;-71
2022/08/25 07:52:40;;;;;;;6.00;5.50;;;27.70;60.70;;;;;;5037219;28;20441;-69
2022/08/25 07:55:10;;;;;;;6.10;5.70;;;27.70;60.70;;;;;;5054790;28;20510;-69
2022/08/25 07:57:47;;;;;;;6.13;5.73;;;27.70;60.70;;;;;;5040310;28;20463;-70
2022/08/25 08:00:26;;;;;;;5.67;5.27;;;27.70;60.70;;;;;;5040028;28;20418;-69
2022/08/25 08:02:55;;;;;;;6.07;5.67;;;27.70;60.70;;;;;;5074268;28;20426;-70
2022/08/25 08:05:23;;;;;;;6.77;6.23;;;27.70;60.70;;;;;;5061353;28;20463;-68
2022/08/25 08:07:51;;;;;;;5.30;4.90;;;27.70;60.70;;;;;;5070552;28;20438;-69
2022/08/25 08:10:21;;;;;;;6.30;5.87;;;27.70;60.60;;;;;;5059533;28;20454;-69
2022/08/25 08:13:11;;;;;;;5.63;5.23;;;27.70;60.70;;;;;;5054536;28;20428;-68
2022/08/25 08:15:46;;;;;;;6.17;5.70;;;27.70;60.60;;;;;;5054945;28;20477;-71
2022/08/25 08:18:15;;;;;;;6.37;5.87;;;27.70;60.60;;;;;;5053338;28;20558;-71
2022/08/25 08:20:44;;;;;;;5.67;5.27;;;27.70;60.60;;;;;;5062873;28;20529;-69
2022/08/25 08:23:13;;;;;;;5.67;5.27;;;27.70;60.60;;;;;;5074830;28;20511;-69
2022/08/25 08:25:41;;;;;;;6.37;5.97;;;27.70;60.60;;;;;;5036387;28;20444;-69
2022/08/25 08:28:11;;;;;;;5.60;5.13;;;27.70;60.60;;;;;;5048633;28;20837;-69
2022/08/25 08:30:41;;;;;;;6.10;5.70;;;27.70;60.60;;;;;;5074770;28;20438;-69
2022/08/25 08:33:22;;;;;;;5.97;5.57;;;27.70;60.60;;;;;;5063549;28;20459;-69
2022/08/25 08:35:57;;;;;;;6.10;5.70;;;27.70;60.60;;;;;;5044639;28;20506;-69
2022/08/25 08:38:27;;;;;;;4.97;4.67;;;27.80;60.60;;;;;;5074463;28;20686;-69
2022/08/25 08:43:59;;;;;;;5.47;5.07;;;27.80;60.60;;;;;;5034486;28;20436;-69
2022/08/25 08:46:39;;;;;;;5.80;5.40;;;27.80;60.60;;;;;;5046528;28;20459;-69
2022/08/25 08:49:21;;;;;;;5.80;5.40;;;27.80;60.60;;;;;;5033469;28;20420;-69
2022/08/25 08:51:59;;;;;;;5.47;5.10;;;27.80;60.60;;;;;;5033948;28;20436;-69
2022/08/25 08:54:32;;;;;;;5.03;4.73;;;27.80;60.60;;;;;;5052325;28;20474;-71
2022/08/25 08:57:07;;;;;;;5.40;5.00;;;27.80;60.60;;;;;;5041500;28;20471;-69
2022/08/25 08:59:43;;;;;;;5.83;5.43;;;27.80;60.60;;;;;;5053401;28;20811;-69
2022/08/25 09:02:22;;;;;;;5.93;5.33;;;27.80;60.60;;;;;;5058343;28;20458;-71
2022/08/25 09:05:15;;;;;;;5.47;5.10;;;27.80;60.60;;;;;;5065651;28;21014;-68
2022/08/25 09:07:49;;;;;;;5.53;5.13;;;27.80;60.60;;;;;;5037828;28;20458;-71
2022/08/25 09:10:24;;;;;;;5.90;5.50;;;27.80;60.60;;;;;;5033662;28;20444;-68
2022/08/25 09:13:02;;;;;;;5.50;5.10;;;27.80;60.60;;;;;;5046243;28;20444;-68
2022/08/25 09:18:42;;;;;;;5.53;5.03;;;27.80;60.60;;;;;;5072826;28;20454;-69
2022/08/25 09:21:29;;;;;;;5.37;5.00;;;27.80;60.50;;;;;;5051899;28;20455;-68
2022/08/25 09:24:11;;;;;;;6.73;6.23;;;27.80;60.50;;;;;;5053104;28;20430;-68
2022/08/25 09:26:49;;;;;;;5.83;5.50;;;27.80;60.60;;;;;;5057140;28;20465;-68
2022/08/25 09:29:23;;;;;;;6.17;5.60;;;27.80;60.60;;;;;;5073233;28;20993;-71
2022/08/25 09:32:00;;;;;;;6.20;5.70;;;27.80;60.50;;;;;;5064359;28;20453;-68
2022/08/25 09:34:33;;;;;;;5.30;4.90;;;27.80;60.50;;;;;;5052484;28;20475;-69
2022/08/25 09:37:02;;;;;;;6.50;6.00;;;27.80;60.50;;;;;;5038753;28;20566;-68
2022/08/25 09:39:31;;;;;;;5.83;5.33;;;27.80;60.50;;;;;;5033579;28;20432;-68
2022/08/25 09:42:00;;;;;;;6.17;5.67;;;27.90;60.50;;;;;;5048298;28;20856;-70
2022/08/25 09:44:32;;;;;;;5.43;5.03;;;27.90;60.50;;;;;;5061862;28;20478;-69
2022/08/25 09:47:06;;;;;;;5.57;5.17;;;27.90;60.50;;;;;;5052465;28;20488;-68
2022/08/25 09:49:40;;;;;;;5.73;5.27;;;27.90;60.50;;;;;;5052472;28;20831;-71
2022/08/25 09:52:32;;;;;;;5.40;5.00;;;27.90;60.50;;;;;;5061372;28;20457;-70
2022/08/25 09:55:21;;;;;;;6.00;5.50;;;27.90;60.50;;;;;;5073264;28;20819;-68
2022/08/25 09:57:53;;;;;;;5.90;5.30;;;27.90;60.50;;;;;;5041518;28;20496;-68
2022/08/25 10:00:24;;;;;;;5.37;5.00;;;27.90;60.50;;;;;;5068573;28;20778;-72
2022/08/25 10:03:20;;;;;;;5.67;5.27;;;27.90;60.50;;;;;;5034995;28;20934;-68
2022/08/25 10:06:05;;;;;;;5.17;4.77;;;27.90;60.50;;;;;;5072200;28;20477;-68
2022/08/25 10:08:38;;;;;;;5.20;4.80;;;27.90;60.50;;;;;;5072305;28;20515;-68
2022/08/25 10:11:11;;;;;;;5.60;5.20;;;27.90;60.50;;;;;;5072788;28;20434;-69
2022/08/25 10:13:45;;;;;;;6.70;6.20;;;27.90;60.50;;;;;;5072113;28;20431;-69
2022/08/25 10:16:23;;;;;;;5.60;5.07;;;27.90;60.50;;;;;;5071856;28;20829;-72
2022/08/25 10:19:05;;;;;;;5.90;5.50;;;27.90;60.50;;;;;;5071824;28;20453;-74
2022/08/25 10:21:35;;;;;;;4.70;4.40;;;27.90;60.40;;;;;;5072727;28;20439;-69
2022/08/25 10:24:05;;;;;;;5.17;4.87;;;27.90;60.40;;;;;;5072266;28;20913;-68
2022/08/25 10:26:58;;;;;;;5.30;5.00;;;27.90;60.40;;;;;;5050498;28;20547;-68
2022/08/25 10:29:39;;;;;;;5.63;5.23;;;27.90;60.30;;;;;;5078699;28;20449;-69
2022/08/25 10:32:16;;;;;;;4.63;4.33;;;27.90;60.40;;;;;;5061569;28;20911;-70
2022/08/25 10:34:49;;;;;;;4.90;4.60;;;27.90;60.40;;;;;;5061021;28;20846;-69
2022/08/25 10:37:33;;;;;;;5.73;5.33;;;28.00;60.30;;;;;;5052029;28;20459;-69
2022/08/25 10:40:12;;;;;;;6.00;5.50;;;28.00;60.30;;;;;;5048841;28;20547;-68
2022/08/25 10:43:05;;;;;;;5.23;4.90;;;28.00;60.30;;;;;;5064193;28;20450;-70
2022/08/25 10:45:43;;;;;;;5.30;4.90;;;28.00;60.30;;;;;;5052105;28;20452;-68
2022/08/25 10:48:34;;;;;;;5.03;4.63;;;28.00;60.30;;;;;;5051109;28;20475;-72
2022/08/25 10:51:14;;;;;;;5.23;4.90;;;28.00;60.30;;;;;;5052302;28;20468;-69
2022/08/25 10:53:56;;;;;;;5.30;5.00;;;28.00;60.20;;;;;;5071332;28;20445;-69
2022/08/25 10:56:29;;;;;;;4.30;4.00;;;28.00;60.20;;;;;;5065086;28;20475;-68
2022/08/25 10:59:28;;;;;;;5.03;4.73;;;28.00;60.20;;;;;;5052822;28;20450;-68
2022/08/25 11:02:22;;;;;;;4.73;4.43;;;28.00;60.20;;;;;;5041545;28;20443;-68
2022/08/25 11:04:55;;;;;;;5.73;5.33;;;28.00;60.20;;;;;;5051149;28;20537;-68
2022/08/25 11:07:31;;;;;;;5.27;4.90;;;28.00;60.10;;;;;;5052799;28;20446;-69
2022/08/25 11:10:05;;;;;;;5.30;4.90;;;28.00;60.10;;;;;;5072315;28;20521;-69
2022/08/25 11:12:38;;;;;;;4.97;4.57;;;28.10;60.10;;;;;;5075951;28;20956;-68
2022/08/25 11:15:11;;;;;;;5.00;4.60;;;28.10;60.10;;;;;;5076240;28;20541;-69
2022/08/25 11:17:48;;;;;;;5.23;4.80;;;28.10;60.00;;;;;;5075414;28;20888;-68
2022/08/25 11:20:21;;;;;;;4.73;4.43;;;28.10;60.00;;;;;;5050366;28;20465;-68
2022/08/25 11:23:10;;;;;;;5.43;5.13;;;28.10;59.90;;;;;;5059151;28;20452;-68
2022/08/25 11:25:43;;;;;;;5.50;5.07;;;28.10;59.90;;;;;;5072373;28;20466;-69
2022/08/25 11:28:16;;;;;;;5.63;5.23;;;28.10;59.90;;;;;;5068630;28;20773;-68
2022/08/25 11:30:44;;;;;;;5.00;4.70;;;28.20;59.80;;;;;;5075685;28;20975;-69
2022/08/25 11:33:16;;;;;;;5.10;4.70;;;28.20;59.80;;;;;;5068018;28;20510;-68
2022/08/25 11:35:51;;;;;;;5.47;5.07;;;28.20;59.80;;;;;;5075415;28;20532;-69
2022/08/25 11:38:35;;;;;;;5.50;5.13;;;28.20;59.70;;;;;;5053008;28;20515;-70
2022/08/25 11:41:19;;;;;;;4.97;4.60;;;28.20;59.70;;;;;;5041775;28;20524;-69
2022/08/25 11:44:18;;;;;;;4.80;4.50;;;28.20;59.70;;;;;;5035286;28;20532;-69
2022/08/25 11:47:07;;;;;;;5.20;4.80;;;28.20;59.70;;;;;;5034907;28;20950;-70
2022/08/25 11:49:53;;;;;;;5.93;5.43;;;28.20;59.70;;;;;;5054687;28;20482;-70
2022/08/25 11:52:45;;;;;;;4.87;4.53;;;28.20;59.80;;;;;;5044840;28;20952;-68
2022/08/25 11:55:18;;;;;;;4.30;4.00;;;28.20;59.70;;;;;;5074810;28;20474;-69
2022/08/25 11:57:52;;;;;;;5.23;4.83;;;28.20;59.80;;;;;;5037158;28;20561;-69
2022/08/25 12:00:39;;;;;;;4.83;4.50;;;28.20;59.80;;;;;;5035054;28;20920;-69
2022/08/25 12:03:46;;;;;;;4.93;4.63;;;28.20;59.80;;;;;;5052519;28;20848;-71
2022/08/25 12:06:26;;;;;;;4.07;3.77;;;28.20;59.80;;;;;;5060334;28;20482;-68
2022/08/25 12:09:20;;;;;;;4.73;4.43;;;28.10;59.90;;;;;;5058859;28;20916;-69
2022/08/25 12:11:53;;;;;;;4.87;4.57;;;28.10;59.90;;;;;;5033957;28;20446;-70
2022/08/25 12:14:44;;;;;;;4.30;4.00;;;28.10;59.90;;;;;;5033389;28;20426;-68
2022/08/25 12:17:38;;;;;;;4.17;3.90;;;28.10;59.90;;;;;;5050000;28;20524;-68
2022/08/25 12:20:07;;;;;;;4.70;4.40;;;28.10;60.00;;;;;;5033432;28;20950;-69
2022/08/25 12:22:55;;;;;;;4.20;4.00;;;28.10;60.10;;;;;;5058700;28;20453;-71
2022/08/25 12:25:45;;;;;;;4.07;3.80;;;28.10;59.90;;;;;;5073007;28;20440;-68
2022/08/25 12:28:43;;;;;;;4.20;3.90;;;28.10;59.90;;;;;;5062645;28;20479;-69
2022/08/25 12:31:33;;;;;;;4.53;4.13;;;28.20;59.90;;;;;;5069286;28;20509;-69
2022/08/25 12:34:13;;;;;;;4.70;4.40;;;28.20;59.90;;;;;;5060550;28;21014;-68
2022/08/25 12:36:56;;;;;;;4.40;4.10;;;28.20;59.90;;;;;;5057460;28;20511;-68
2022/08/25 12:39:32;;;;;;;4.80;4.50;;;28.20;59.80;;;;;;5053446;28;20449;-68
2022/08/25 12:42:05;;;;;;;4.77;4.37;;;28.20;59.90;;;;;;5053151;28;20539;-68
2022/08/25 12:44:39;;;;;;;4.43;4.13;;;28.20;59.90;;;;;;5037682;28;20451;-69
2022/08/25 12:47:25;;;;;;;4.90;4.60;;;28.20;59.90;;;;;;5032650;28;20455;-76
2022/08/25 12:50:14;;;;;;;4.77;4.37;;;28.20;59.80;;;;;;5056430;28;20543;-68
2022/08/25 12:52:42;;;;;;;4.40;4.10;;;28.20;59.80;;;;;;5062947;28;20914;-69
2022/08/25 12:55:14;;;;;;;4.40;4.10;;;28.20;59.80;;;;;;5051916;28;20438;-72
2022/08/25 12:57:46;;;;;;;4.60;4.30;;;28.20;59.80;;;;;;5054785;28;20501;-69
2022/08/25 13:00:22;;;;;;;4.27;3.97;;;28.20;59.90;;;;;;5052570;28;20477;-69
2022/08/25 13:03:21;;;;;;;4.20;3.90;;;28.20;59.90;;;;;;5012861;28;1094521;-69
2022/08/25 13:06:23;;;;;;;4.07;3.87;;;28.20;59.80;;;;;;5053925;28;20540;-68
2022/08/25 13:09:15;;;;;;;4.77;4.47;;;28.20;59.80;;;;;;5051349;28;20782;-69
2022/08/25 13:11:49;;;;;;;4.20;3.90;;;28.20;59.90;;;;;;5060352;28;20517;-70
2022/08/25 13:14:25;;;;;;;4.43;4.13;;;28.20;59.90;;;;;;5073560;28;20479;-69
2022/08/25 13:16:58;;;;;;;4.67;4.37;;;28.20;59.90;;;;;;5061518;28;20475;-70
2022/08/25 13:19:28;;;;;;;4.07;3.77;;;28.20;59.80;;;;;;5047314;28;20504;-68
2022/08/25 13:22:11;;;;;;;4.57;4.27;;;28.30;59.80;;;;;;5046375;28;20491;-68
2022/08/25 13:24:45;;;;;;;4.23;3.93;;;28.30;59.80;;;;;;5073584;28;20728;-69
2022/08/25 13:27:21;;;;;;;4.23;3.93;;;28.30;59.80;;;;;;5037111;28;20451;-69
2022/08/25 13:29:53;;;;;;;4.73;4.43;;;28.30;59.80;;;;;;5040243;28;20493;-68
2022/08/25 13:32:29;;;;;;;4.17;3.97;;;28.30;59.80;;;;;;5045691;28;20831;-69
2022/08/25 13:35:15;;;;;;;4.20;3.90;;;28.30;59.80;;;;;;5063924;28;20463;-68